createdAt,value
2018-11-29T00:00:09.671Z,101880.89
2018-11-29T00:02:37.903Z,101896.83
2018-11-29T00:05:06.840Z,101904.20
2018-11-29T00:07:35.704Z,101893.80
2018-11-29T00:10:03.940Z,101891.20
2018-11-29T00:12:32.225Z,101882.08
2018-11-29T00:15:00.404Z,101869.95
2018-11-29T00:17:29.676Z,101870.39
2018-11-29T00:19:57.878Z,101872.12
2018-11-29T00:22:26.027Z,101885.14
2018-11-29T00:24:54.203Z,101897.73
2018-11-29T00:27:22.583Z,101915.96
2018-11-29T00:29:50.901Z,101912.52
2018-11-29T00:32:19.327Z,101902.97
2018-11-29T00:34:47.604Z,101897.05
2018-11-29T00:37:15.906Z,101899.75
2018-11-29T00:39:44.274Z,101895.47
2018-11-29T00:42:12.507Z,101887.69
2018-11-29T00:44:40.668Z,101889.45
2018-11-29T00:47:08.900Z,101894.25
2018-11-29T00:49:37.241Z,101893.36
2018-11-29T00:52:05.437Z,101887.36
2018-11-29T00:54:33.659Z,101887.74
2018-11-29T00:57:01.832Z,101891.66
2018-11-29T00:59:30.227Z,101899.05
2018-11-29T01:02:00.272Z,101880.36
2018-11-29T01:04:29.084Z,101880.37
2018-11-29T01:06:57.381Z,101870.80
2018-11-29T01:09:25.520Z,101866.45
2018-11-29T01:11:53.698Z,101871.69
2018-11-29T01:14:21.989Z,101863.87
2018-11-29T01:16:50.145Z,101858.64
2018-11-29T01:19:18.336Z,101854.73
2018-11-29T01:21:46.517Z,101856.48
2018-11-29T01:24:14.809Z,101871.22
2018-11-29T01:26:49.697Z,101877.74
2018-11-29T01:29:17.855Z,101869.95
2018-11-29T01:31:46.172Z,101866.02
2018-11-29T01:34:14.447Z,101883.36
2018-11-29T01:36:42.625Z,101861.19
2018-11-29T01:39:10.794Z,101844.23
2018-11-29T01:41:39.004Z,101843.35
2018-11-29T01:44:09.860Z,101843.30
2018-11-29T01:46:38.017Z,101842.45
2018-11-29T01:49:06.173Z,101838.50
2018-11-29T01:51:34.381Z,101853.20
2018-11-29T01:54:02.748Z,101845.44
2018-11-29T01:56:30.915Z,101844.09
2018-11-29T01:58:59.272Z,101769.83
2018-11-29T02:01:27.434Z,101842.34
2018-11-29T02:03:55.583Z,101848.45
2018-11-29T02:06:24.102Z,101861.05
2018-11-29T02:08:52.262Z,101852.38
2018-11-29T02:11:20.552Z,101844.53
2018-11-29T02:13:48.711Z,101852.83
2018-11-29T02:16:17.039Z,101847.23
2018-11-29T02:18:47.470Z,101846.80
2018-11-29T02:21:15.743Z,101835.53
2018-11-29T02:23:43.990Z,101838.08
2018-11-29T02:26:12.165Z,101831.52
2018-11-29T02:28:45.752Z,101822.40
2018-11-29T02:31:14.342Z,101826.73
2018-11-29T02:33:42.512Z,101823.70
2018-11-29T02:36:10.808Z,101830.27
2018-11-29T02:38:39.073Z,101828.50
2018-11-29T02:41:07.291Z,101835.39
2018-11-29T02:43:35.844Z,101836.26
2018-11-29T02:46:04.083Z,101837.98
2018-11-29T02:48:32.329Z,101835.81
2018-11-29T02:51:00.481Z,101833.19
2018-11-29T02:53:28.757Z,101844.94
2018-11-29T02:56:03.152Z,101833.16
2018-11-29T02:58:31.341Z,101832.72
2018-11-29T03:00:59.717Z,101842.26
2018-11-29T03:03:27.900Z,101836.16
2018-11-29T03:05:56.077Z,101831.88
2018-11-29T03:08:24.246Z,101826.68
2018-11-29T03:10:52.399Z,101829.69
2018-11-29T03:13:21.126Z,101830.09
2018-11-29T03:15:49.326Z,101834.46
2018-11-29T03:18:17.489Z,101836.71
2018-11-29T03:20:45.926Z,101822.92
2018-11-29T03:23:14.197Z,101813.84
2018-11-29T03:25:42.541Z,101812.61
2018-11-29T03:28:10.744Z,101816.98
2018-11-29T03:30:38.993Z,101813.97
2018-11-29T03:33:07.177Z,101816.61
2018-11-29T03:35:35.556Z,101817.92
2018-11-29T03:38:03.893Z,101813.59
2018-11-29T03:40:32.063Z,101814.48
2018-11-29T03:43:00.221Z,101805.73
2018-11-29T03:45:28.402Z,101800.55
2018-11-29T03:47:56.682Z,101798.31
2018-11-29T03:50:24.845Z,101794.88
2018-11-29T03:52:53.135Z,101800.94
2018-11-29T03:55:21.479Z,101787.89
2018-11-29T03:57:49.866Z,101794.38
2018-11-29T04:00:18.448Z,101790.47
2018-11-29T04:02:47.377Z,101784.33
2018-11-29T04:05:15.543Z,101785.17
2018-11-29T04:07:43.735Z,101782.55
2018-11-29T04:10:12.884Z,101788.52
2018-11-29T04:12:41.246Z,101780.76
2018-11-29T04:15:10.598Z,101781.10
2018-11-29T04:17:40.837Z,101785.01
2018-11-29T04:20:08.846Z,101778.10
2018-11-29T04:22:37.048Z,101768.09
2018-11-29T04:25:05.971Z,101775.98
2018-11-29T04:27:34.125Z,101775.19
2018-11-29T04:30:02.296Z,101774.00
2018-11-29T04:32:30.456Z,101764.47
2018-11-29T04:34:58.617Z,101764.58
2018-11-29T04:37:26.815Z,101773.22
2018-11-29T04:39:54.953Z,101779.80
2018-11-29T04:42:23.181Z,101774.59
2018-11-29T04:44:51.598Z,101775.94
2018-11-29T04:47:19.757Z,101770.75
2018-11-29T04:49:48.001Z,101785.47
2018-11-29T04:52:16.313Z,101776.81
2018-11-29T04:54:44.494Z,101781.14
2018-11-29T04:57:12.752Z,101774.58
2018-11-29T04:59:40.917Z,101780.25
2018-11-29T05:02:09.071Z,101779.41
2018-11-29T05:04:37.292Z,101780.30
2018-11-29T05:07:05.478Z,101756.11
2018-11-29T05:09:33.662Z,101762.08
2018-11-29T05:12:01.840Z,101775.56
2018-11-29T05:14:30.147Z,101769.42
2018-11-29T05:16:58.329Z,101767.31
2018-11-29T05:19:26.633Z,101767.30
2018-11-29T05:21:55.046Z,101769.00
2018-11-29T05:24:23.246Z,101759.09
2018-11-29T05:26:51.566Z,101752.55
2018-11-29T05:29:19.713Z,101757.33
2018-11-29T05:31:47.932Z,101757.32
2018-11-29T05:34:16.058Z,101755.15
2018-11-29T05:36:44.354Z,101762.09
2018-11-29T05:39:12.553Z,101748.23
2018-11-29T05:41:40.789Z,101754.28
2018-11-29T05:44:08.968Z,101762.96
2018-11-29T05:46:37.159Z,101760.73
2018-11-29T05:49:05.310Z,101765.09
2018-11-29T05:51:33.914Z,101762.94
2018-11-29T05:54:02.065Z,101754.27
2018-11-29T05:56:30.314Z,101766.44
2018-11-29T05:58:58.480Z,101758.27
2018-11-29T06:01:30.390Z,101737.98
2018-11-29T06:03:58.539Z,101740.02
2018-11-29T06:06:26.779Z,101741.74
2018-11-29T06:08:55.036Z,101737.88
2018-11-29T06:11:23.409Z,101736.14
2018-11-29T06:13:51.614Z,101723.55
2018-11-29T06:16:19.780Z,101723.09
2018-11-29T06:18:48.272Z,101723.91
2018-11-29T06:21:16.451Z,101728.69
2018-11-29T06:23:44.645Z,101729.99
2018-11-29T06:26:12.891Z,101740.78
2018-11-29T06:28:41.244Z,101739.45
2018-11-29T06:31:09.429Z,101741.20
2018-11-29T06:33:37.573Z,101741.17
2018-11-29T06:36:05.705Z,101736.41
2018-11-29T06:38:34.043Z,101735.98
2018-11-29T06:41:02.231Z,101735.57
2018-11-29T06:43:38.093Z,101733.39
2018-11-29T06:46:07.298Z,101729.06
2018-11-29T06:48:35.487Z,101732.53
2018-11-29T06:51:03.788Z,101733.39
2018-11-29T06:53:37.323Z,101729.92
2018-11-29T06:56:05.547Z,101723.85
2018-11-29T06:58:33.971Z,101731.63
2018-11-29T07:01:02.120Z,101725.07
2018-11-29T07:03:30.347Z,101719.86
2018-11-29T07:05:58.632Z,101725.52
2018-11-29T07:08:26.992Z,101728.92
2018-11-29T07:10:55.397Z,101728.03
2018-11-29T07:13:23.576Z,101725.03
2018-11-29T07:15:51.780Z,101720.19
2018-11-29T07:18:20.093Z,101725.36
2018-11-29T07:20:59.500Z,101726.17
2018-11-29T07:23:28.131Z,101721.78
2018-11-29T07:25:56.420Z,101727.44
2018-11-29T07:28:24.589Z,101715.70
2018-11-29T07:30:52.862Z,101710.50
2018-11-29T07:33:21.094Z,101710.39
2018-11-29T07:35:49.286Z,101709.94
2018-11-29T07:38:17.459Z,101712.91
2018-11-29T07:40:45.779Z,101641.76
2018-11-29T07:43:13.987Z,101701.16
2018-11-29T07:45:42.175Z,101700.22
2018-11-29T07:48:10.391Z,101701.50
2018-11-29T07:50:38.639Z,101696.73
2018-11-29T07:53:06.838Z,101697.06
2018-11-29T07:55:54.933Z,101696.62
2018-11-29T07:58:23.205Z,101694.44
2018-11-29T08:00:51.377Z,101692.63
2018-11-29T08:03:20.293Z,101683.95
2018-11-29T08:05:48.472Z,101682.20
2018-11-29T08:08:16.668Z,101691.72
2018-11-29T08:10:44.899Z,101693.00
2018-11-29T08:13:13.203Z,101683.02
2018-11-29T08:15:41.422Z,101689.98
2018-11-29T08:18:09.683Z,101691.70
2018-11-29T08:20:37.872Z,101681.63
2018-11-29T08:23:06.241Z,101677.72
2018-11-29T08:25:34.393Z,101675.97
2018-11-29T08:28:02.570Z,101680.32
2018-11-29T08:30:30.768Z,101681.20
2018-11-29T08:32:58.959Z,101685.51
2018-11-29T08:35:28.375Z,101674.28
2018-11-29T08:37:56.681Z,101682.84
2018-11-29T08:40:25.017Z,101688.45
2018-11-29T08:42:53.303Z,101680.18
2018-11-29T08:45:21.735Z,101680.59
2018-11-29T08:47:49.948Z,101676.27
2018-11-29T08:50:18.221Z,101676.18
2018-11-29T08:52:46.790Z,101678.79
2018-11-29T08:55:17.859Z,101683.53
2018-11-29T08:57:46.614Z,101680.06
2018-11-29T09:00:18.608Z,101675.27
2018-11-29T09:02:47.988Z,101671.77
2018-11-29T09:05:19.227Z,101669.16
2018-11-29T09:07:48.242Z,101663.47
2018-11-29T09:10:18.913Z,101663.44
2018-11-29T09:12:47.147Z,101662.99
2018-11-29T09:15:16.058Z,101666.81
2018-11-29T09:17:46.298Z,101669.04
2018-11-29T09:20:18.427Z,101665.52
2018-11-29T09:22:47.708Z,101665.03
2018-11-29T09:25:16.892Z,101666.31
2018-11-29T09:27:45.102Z,101662.84
2018-11-29T09:30:19.027Z,101667.10
2018-11-29T09:32:48.322Z,101661.44
2018-11-29T09:35:16.602Z,101654.44
2018-11-29T09:37:44.775Z,101651.83
2018-11-29T09:40:15.777Z,101645.31
2018-11-29T09:42:44.387Z,101653.45
2018-11-29T09:45:14.772Z,101659.09
2018-11-29T09:47:43.658Z,101655.58
2018-11-29T09:50:12.812Z,101644.22
2018-11-29T09:52:41.267Z,101639.83
2018-11-29T09:55:11.536Z,101630.28
2018-11-29T09:57:39.712Z,101632.38
2018-11-29T10:00:27.204Z,101634.95
2018-11-29T10:02:54.949Z,101631.42
2018-11-29T10:05:23.133Z,101637.42
2018-11-29T10:07:51.511Z,101636.53
2018-11-29T10:10:19.691Z,101632.20
2018-11-29T10:12:47.914Z,101631.69
2018-11-29T10:15:16.222Z,101633.85
2018-11-29T10:17:44.415Z,101632.55
2018-11-29T10:20:13.036Z,101629.05
2018-11-29T10:22:41.933Z,101631.23
2018-11-29T10:25:11.500Z,101629.42
2018-11-29T10:27:39.872Z,101624.68
2018-11-29T10:30:17.661Z,101617.26
2018-11-29T10:32:45.939Z,101619.50
2018-11-29T10:35:14.103Z,101619.05
2018-11-29T10:37:42.764Z,101620.77
2018-11-29T10:40:11.273Z,101614.72
2018-11-29T10:42:39.660Z,101610.32
2018-11-29T10:45:16.305Z,101604.59
2018-11-29T10:47:51.975Z,101597.57
2018-11-29T10:50:14.565Z,101600.14
2018-11-29T10:52:42.794Z,101597.46
2018-11-29T10:55:14.973Z,101587.88
2018-11-29T10:57:43.409Z,101581.31
2018-11-29T11:00:20.919Z,101579.15
2018-11-29T11:02:54.370Z,101578.70
2018-11-29T11:05:22.792Z,101583.84
2018-11-29T11:07:51.086Z,101571.61
2018-11-29T11:10:19.406Z,101575.08
2018-11-29T11:12:48.172Z,101570.27
2018-11-29T11:15:16.620Z,101576.42
2018-11-29T11:17:44.817Z,101575.04
2018-11-29T11:20:13.224Z,101549.16
2018-11-29T11:22:41.466Z,101568.84
2018-11-29T11:25:10.631Z,101565.78
2018-11-29T11:27:38.838Z,101562.69
2018-11-29T11:30:14.330Z,101555.70
2018-11-29T11:32:48.324Z,101558.31
2018-11-29T11:35:16.534Z,101563.91
2018-11-29T11:37:44.865Z,101562.52
2018-11-29T11:40:14.766Z,101557.70
2018-11-29T11:42:43.254Z,101554.64
2018-11-29T11:45:19.042Z,101554.16
2018-11-29T11:47:47.374Z,101551.45
2018-11-29T11:50:17.490Z,101540.16
2018-11-29T11:52:45.761Z,101546.15
2018-11-29T11:55:18.852Z,101537.94
2018-11-29T11:57:45.994Z,101537.95
2018-11-29T12:00:15.522Z,101547.38
2018-11-29T12:02:44.236Z,101540.02
2018-11-29T12:05:12.772Z,101544.84
2018-11-29T12:07:41.001Z,101547.05
2018-11-29T12:10:10.577Z,101547.00
2018-11-29T12:12:38.753Z,101543.50
2018-11-29T12:15:08.849Z,101543.95
2018-11-29T12:17:37.369Z,101544.44
2018-11-29T12:20:08.961Z,101551.33
2018-11-29T12:22:37.353Z,101536.11
2018-11-29T12:25:06.514Z,101530.39
2018-11-29T12:27:34.690Z,101540.38
2018-11-29T12:30:03.125Z,101534.30
2018-11-29T12:32:31.349Z,101533.41
2018-11-29T12:34:59.601Z,101527.33
2018-11-29T12:37:27.795Z,101518.59
2018-11-29T12:39:56.193Z,101537.66
2018-11-29T12:42:25.256Z,101523.64
2018-11-29T12:44:53.460Z,101520.63
2018-11-29T12:47:21.723Z,101506.20
2018-11-29T12:49:49.957Z,101500.12
2018-11-29T12:52:18.131Z,101484.45
2018-11-29T12:54:46.583Z,101477.29
2018-11-29T12:57:14.907Z,101469.04
2018-11-29T12:59:43.210Z,101483.36
2018-11-29T13:02:13.366Z,101482.87
2018-11-29T13:04:42.678Z,101477.15
2018-11-29T13:07:11.956Z,101483.19
2018-11-29T13:09:40.213Z,101477.15
2018-11-29T13:12:08.552Z,101462.27
2018-11-29T13:14:36.837Z,101446.19
2018-11-29T13:17:05.163Z,101456.59
2018-11-29T13:19:35.392Z,101464.34
2018-11-29T13:22:03.603Z,101449.92
2018-11-29T13:24:32.016Z,101442.48
2018-11-29T13:27:00.237Z,101449.82
2018-11-29T13:29:28.449Z,101435.48
2018-11-29T13:31:56.656Z,101449.33
2018-11-29T13:34:24.880Z,101433.64
2018-11-29T13:36:53.088Z,101436.25
2018-11-29T13:39:21.577Z,101430.13
2018-11-29T13:41:49.739Z,101429.21
2018-11-29T13:44:18.014Z,101429.63
2018-11-29T13:46:46.278Z,101423.44
2018-11-29T13:49:14.522Z,101412.33
2018-11-29T13:51:42.704Z,101421.23
2018-11-29T13:54:11.021Z,101419.11
2018-11-29T13:56:44.695Z,101409.46
2018-11-29T13:59:12.886Z,101407.25
2018-11-29T14:01:41.230Z,101408.52
2018-11-29T14:04:09.425Z,101402.32
2018-11-29T14:06:37.607Z,101394.83
2018-11-29T14:09:08.290Z,101385.28
2018-11-29T14:11:36.507Z,101387.80
2018-11-29T14:14:07.893Z,101382.56
2018-11-29T14:16:32.997Z,101375.22
2018-11-29T14:19:01.266Z,101364.59
2018-11-29T14:21:36.172Z,101354.64
2018-11-29T14:24:04.340Z,101357.61
2018-11-29T14:26:32.545Z,101351.52
2018-11-29T14:29:00.723Z,101345.75
2018-11-29T14:31:28.895Z,101343.17
2018-11-29T14:33:57.274Z,101331.81
2018-11-29T14:36:25.452Z,101343.98
2018-11-29T14:38:53.669Z,101355.69
2018-11-29T14:41:21.895Z,101366.95
2018-11-29T14:43:50.101Z,101372.23
2018-11-29T14:46:18.601Z,101357.95
2018-11-29T14:48:46.799Z,101369.27
2018-11-29T14:51:14.997Z,101365.74
2018-11-29T14:53:43.321Z,101357.56
2018-11-29T14:56:11.508Z,101361.82
2018-11-29T14:58:40.337Z,101351.52
2018-11-29T15:01:08.631Z,101349.72
2018-11-29T15:03:36.847Z,101348.41
2018-11-29T15:06:05.131Z,101347.10
2018-11-29T15:08:33.319Z,101346.24
2018-11-29T15:11:01.694Z,101337.55
2018-11-29T15:13:30.556Z,101337.50
2018-11-29T15:15:58.840Z,101342.26
2018-11-29T15:18:27.127Z,101348.81
2018-11-29T15:20:55.302Z,101347.03
2018-11-29T15:23:23.515Z,101340.97
2018-11-29T15:25:52.566Z,101338.35
2018-11-29T15:28:20.777Z,101331.75
2018-11-29T15:30:49.004Z,101333.05
2018-11-29T15:33:17.300Z,101324.70
2018-11-29T15:35:45.508Z,101318.57
2018-11-29T15:38:13.848Z,101304.45
2018-11-29T15:40:42.998Z,101303.45
2018-11-29T15:43:11.341Z,101288.27
2018-11-29T15:45:39.502Z,101309.31
2018-11-29T15:48:07.701Z,101298.37
2018-11-29T15:50:35.888Z,101310.32
2018-11-29T15:53:04.081Z,101311.91
2018-11-29T15:55:32.210Z,101306.75
2018-11-29T15:58:00.708Z,101311.51
2018-11-29T16:00:29.603Z,101303.86
2018-11-29T16:02:58.957Z,101289.17
2018-11-29T16:05:27.217Z,101309.07
2018-11-29T16:07:55.396Z,101303.23
2018-11-29T16:10:24.521Z,101296.80
2018-11-29T16:12:52.759Z,101290.16
2018-11-29T16:15:21.442Z,101294.98
2018-11-29T16:17:50.511Z,101294.53
2018-11-29T16:20:23.671Z,101284.84
2018-11-29T16:22:51.894Z,101278.93
2018-11-29T16:25:20.303Z,101271.66
2018-11-29T16:27:48.558Z,101271.48
2018-11-29T16:30:26.072Z,101277.63
2018-11-29T16:32:54.967Z,101276.15
2018-11-29T16:35:23.321Z,101272.79
2018-11-29T16:37:51.720Z,101257.70
2018-11-29T16:40:19.925Z,101258.45
2018-11-29T16:42:48.106Z,101256.80
2018-11-29T16:45:16.288Z,101251.64
2018-11-29T16:47:44.483Z,101246.09
2018-11-29T16:50:15.672Z,101253.99
2018-11-29T16:52:43.876Z,101262.72
2018-11-29T16:55:12.515Z,101247.45
2018-11-29T16:57:44.638Z,101261.23
2018-11-29T17:00:17.761Z,101248.94
2018-11-29T17:02:45.958Z,101244.82
2018-11-29T17:05:14.592Z,101240.28
2018-11-29T17:07:42.873Z,101240.61
2018-11-29T17:10:12.258Z,101233.74
2018-11-29T17:12:40.722Z,101234.16
2018-11-29T17:15:10.717Z,101231.45
2018-11-29T17:17:38.907Z,101225.51
2018-11-29T17:20:11.762Z,101225.19
2018-11-29T17:22:41.130Z,101219.61
2018-11-29T17:25:11.126Z,101210.98
2018-11-29T17:27:39.454Z,101204.04
2018-11-29T17:30:17.458Z,101196.19
2018-11-29T17:32:45.810Z,101189.77
2018-11-29T17:35:13.983Z,101190.16
2018-11-29T17:37:42.214Z,101184.58
2018-11-29T17:40:13.544Z,101183.22
2018-11-29T17:42:41.842Z,101178.27
2018-11-29T17:45:11.262Z,101189.66
2018-11-29T17:47:39.620Z,101179.37
2018-11-29T17:50:11.382Z,101181.11
2018-11-29T17:52:39.727Z,101188.54
2018-11-29T17:55:07.950Z,101179.92
2018-11-29T17:57:36.138Z,101177.75
2018-11-29T18:00:07.200Z,101179.44
2018-11-29T18:02:35.574Z,101173.15
2018-11-29T18:05:03.838Z,101177.36
2018-11-29T18:07:32.379Z,101174.99
2018-11-29T18:10:00.802Z,101154.42
2018-11-29T18:12:30.014Z,101134.36
2018-11-29T18:14:59.191Z,101151.75
2018-11-29T18:17:28.315Z,101133.88
2018-11-29T18:20:04.861Z,101123.47
2018-11-29T18:22:33.836Z,101123.49
2018-11-29T18:25:02.853Z,101116.34
2018-11-29T18:27:31.717Z,101109.34
2018-11-29T18:29:59.904Z,101106.28
2018-11-29T18:32:28.174Z,101093.04
2018-11-29T18:34:56.487Z,101086.57
2018-11-29T18:37:24.677Z,101087.87
2018-11-29T18:39:52.875Z,101088.25
2018-11-29T18:42:21.807Z,101086.17
2018-11-29T18:44:50.090Z,101087.22
2018-11-29T18:47:18.290Z,101102.47
2018-11-29T18:49:47.275Z,101096.31
2018-11-29T18:52:15.586Z,101093.70
2018-11-29T18:54:43.856Z,101106.58
2018-11-29T18:57:22.342Z,101115.63
2018-11-29T18:59:50.599Z,101142.27
2018-11-29T19:02:18.805Z,101183.70
2018-11-29T19:04:47.064Z,101161.25
2018-11-29T19:07:15.379Z,101187.17
2018-11-29T19:09:43.830Z,101181.28
2018-11-29T19:12:12.161Z,101186.66
2018-11-29T19:14:42.859Z,101183.90
2018-11-29T19:17:11.109Z,101185.55
2018-11-29T19:19:39.495Z,101185.09
2018-11-29T19:22:08.685Z,101180.77
2018-11-29T19:24:36.985Z,101166.94
2018-11-29T19:27:05.411Z,101151.16
2018-11-29T19:29:39.504Z,101153.72
2018-11-29T19:32:07.736Z,101151.12
2018-11-29T19:34:36.197Z,101144.70
2018-11-29T19:37:04.408Z,101135.02
2018-11-29T19:39:32.683Z,101127.73
2018-11-29T19:42:00.893Z,101149.87
2018-11-29T19:44:29.047Z,101139.70
2018-11-29T19:47:02.038Z,101146.71
2018-11-29T19:49:30.612Z,101136.84
2018-11-29T19:51:58.989Z,101137.88
2018-11-29T19:54:27.218Z,101137.42
2018-11-29T19:56:55.497Z,101131.73
2018-11-29T19:59:24.180Z,101115.69
2018-11-29T20:01:52.443Z,101117.89
2018-11-29T20:04:20.646Z,101121.12
2018-11-29T20:06:48.980Z,101126.23
2018-11-29T20:09:17.189Z,101115.48
2018-11-29T20:11:45.607Z,101113.32
2018-11-29T20:14:13.850Z,101111.58
2018-11-29T20:16:42.373Z,101131.16
2018-11-29T20:19:10.581Z,101123.94
2018-11-29T20:21:38.766Z,101123.48
2018-11-29T20:24:06.974Z,101117.78
2018-11-29T20:26:35.224Z,101129.18
2018-11-29T20:29:03.781Z,101138.25
2018-11-29T20:31:32.158Z,101079.17
2018-11-29T20:34:00.385Z,101140.28
2018-11-29T20:36:28.601Z,101139.72
2018-11-29T20:38:57.149Z,101142.73
2018-11-29T20:41:25.946Z,101146.84
2018-11-29T20:43:54.198Z,101146.84
2018-11-29T20:46:22.426Z,101142.29
2018-11-29T20:48:50.684Z,101149.02
2018-11-29T20:51:18.827Z,101147.98
2018-11-29T20:53:47.122Z,101143.30
2018-11-29T20:56:15.690Z,101146.61
2018-11-29T20:58:43.991Z,101133.57
2018-11-29T21:01:12.383Z,101132.16
2018-11-29T21:03:40.636Z,101136.48
2018-11-29T21:06:10.861Z,101135.89
2018-11-29T21:08:39.126Z,101132.48
2018-11-29T21:11:07.870Z,101122.16
2018-11-29T21:13:36.208Z,101127.92
2018-11-29T21:16:04.467Z,101128.31
2018-11-29T21:18:32.738Z,101128.53
2018-11-29T21:21:00.917Z,101135.78
2018-11-29T21:23:29.251Z,101134.59
2018-11-29T21:25:57.532Z,101130.42
2018-11-29T21:28:25.681Z,101135.21
2018-11-29T21:30:53.857Z,101127.48
2018-11-29T21:33:22.138Z,101119.55
2018-11-29T21:35:50.350Z,101122.00
2018-11-29T21:38:19.674Z,101119.31
2018-11-29T21:40:56.723Z,101123.81
2018-11-29T21:43:24.914Z,101123.88
2018-11-29T21:45:53.111Z,101120.08
2018-11-29T21:48:21.373Z,101124.80
2018-11-29T21:50:49.584Z,101130.77
2018-11-29T21:53:17.790Z,101127.08
2018-11-29T21:55:46.049Z,101127.28
2018-11-29T21:58:14.234Z,101114.44
2018-11-29T22:00:44.060Z,101102.85
2018-11-29T22:04:24.315Z,101109.41
2018-11-29T22:06:52.689Z,101110.49
2018-11-29T22:09:21.125Z,101104.73
2018-11-29T22:11:49.439Z,101105.48
2018-11-29T22:14:20.349Z,101103.36
2018-11-29T22:16:48.710Z,101088.55
2018-11-29T22:19:16.945Z,101090.48
2018-11-29T22:21:45.175Z,101078.81
2018-11-29T22:24:15.443Z,101081.93
2018-11-29T22:27:11.133Z,101080.52
2018-11-29T22:29:41.280Z,101078.91
2018-11-29T22:32:09.550Z,101082.97
2018-11-29T22:34:46.150Z,101080.13
2018-11-29T22:37:15.181Z,101081.73
2018-11-29T22:39:43.503Z,101080.97
2018-11-29T22:42:19.934Z,101082.64
2018-11-29T22:44:50.214Z,101085.30
2018-11-29T23:03:36.123Z,101092.98
2018-11-29T23:06:07.072Z,101092.55
2018-11-29T23:08:35.669Z,101092.31
2018-11-29T23:11:03.958Z,101097.73
2018-11-29T23:13:32.111Z,101093.11
2018-11-29T23:16:00.325Z,101100.38
2018-11-29T23:18:28.765Z,101095.38
2018-11-29T23:20:56.993Z,101089.11
2018-11-29T23:23:25.191Z,101086.09
2018-11-29T23:25:53.393Z,101075.80
2018-11-29T23:28:23.105Z,101076.46
2018-11-29T23:30:51.322Z,101078.89
2018-11-29T23:33:20.030Z,101069.87
2018-11-29T23:35:48.245Z,101059.16
2018-11-29T23:38:16.782Z,101057.81
2018-11-29T23:40:45.644Z,101057.67
2018-11-29T23:43:16.067Z,101060.98
2018-11-29T23:45:44.327Z,101081.41
2018-11-29T23:48:12.543Z,101058.70
2018-11-29T23:50:40.873Z,101053.13
2018-11-29T23:53:09.275Z,101050.05
2018-11-29T23:58:11.826Z,101083.87
